sim
Sign-in with your pilot id or email,
or register
Callsign
Passwort

Schedule Details

Flight Number: DLH2237
Departure: Paris Charles de Gaulle Airport (LFPG) at 19:35
Arrival: Munich Airport (EDDM) at 21:00
Route: Lufthansa Passenger Schedule. Enter filed route here before submitting Pirep.

Weather Information
Getting current METAR information for LFPG 190200Z 11010KT CAVOK 22/14 Q1013 NOSIG
Getting current METAR information for EDDM 190220Z VRB02KT CAVOK 05/03 Q1021 NOSIG

Schedule Frequency

Route Map